Terminal Aerodrome Forecast
Issued by NWS

Home | Current Version | Previous Version | Text Only | Print | Product List | Glossary On
Versions: 1 2 3 4 5 6 7 8 9 10 11 12
000
FTUS45 KVEF 221700
TAFEED
TAF
KEED 221723Z 2218/2318 VRB05KT P6SM SKC
     FM222000 20010KT P6SM SKC
     FM230300 24006KT P6SM FEW180 SCT250
     FM231200 VRB04KT P6SM SCT180 BKN250=

USA.gov is the U.S. government's official web portal to all federal, state and local government web resources and services.